Time;durP1;ratioP1;P1;durP2;ratioP2;P2;SDS_P1;SDS_P2;PMS_P1;PMS_P2;Temp;Humidity;BMP_temperature;BMP_pressure;BME280_temperature;BME280_humidity;BME280_pressure;Samples;Min_cycle;Max_cycle;Signal;HPM_P1;HPM_P2
2021/11/19 00:02:00;;;;;;;33.47;18.30;;;;;;;;;;5031666;28;20398;-48
2021/11/19 00:04:26;;;;;;;29.47;16.93;;;;;;;;;;5031900;28;20459;-48
2021/11/19 00:06:54;;;;;;;40.90;17.60;;;;;;;;;;5031642;28;20410;-49
2021/11/19 00:09:21;;;;;;;32.97;17.30;;;;;;;;;;5031540;28;20438;-48
2021/11/19 00:11:48;;;;;;;30.53;17.80;;;;;;;;;;5031596;28;20421;-51
2021/11/19 00:14:15;;;;;;;31.83;16.97;;;;;;;;;;5031752;28;20494;-49
2021/11/19 00:16:42;;;;;;;24.97;16.77;;;;;;;;;;5031491;28;20464;-49
2021/11/19 00:19:09;;;;;;;32.70;19.00;;;;;;;;;;5031672;28;20409;-48
2021/11/19 00:21:36;;;;;;;26.97;17.80;;;;;;;;;;5031299;28;20418;-48
2021/11/19 00:24:03;;;;;;;29.00;17.63;;;;;;;;;;5031563;28;20398;-48
2021/11/19 00:26:30;;;;;;;39.43;17.70;;;;;;;;;;5031456;28;20822;-48
2021/11/19 00:28:56;;;;;;;32.97;17.07;;;;;;;;;;5031623;28;20468;-48
2021/11/19 00:31:24;;;;;;;27.73;15.50;;;;;;;;;;5031541;28;20426;-49
2021/11/19 00:33:50;;;;;;;29.60;17.70;;;;;;;;;;5031603;28;20399;-48
2021/11/19 00:36:17;;;;;;;33.97;17.00;;;;;;;;;;5031291;28;20540;-49
2021/11/19 00:38:44;;;;;;;33.30;16.80;;;;;;;;;;5032034;28;20402;-48
2021/11/19 00:41:11;;;;;;;29.57;17.80;;;;;;;;;;5031192;28;20426;-48
2021/11/19 00:43:38;;;;;;;28.00;17.60;;;;;;;;;;5031483;28;20428;-51
2021/11/19 00:46:04;;;;;;;27.83;16.23;;;;;;;;;;5031324;28;20940;-48
2021/11/19 00:48:32;;;;;;;36.20;18.77;;;;;;;;;;5031798;28;20418;-49
2021/11/19 00:51:04;;;;;;;33.27;17.30;;;;;;;;;;5031075;28;20419;-49
2021/11/19 00:53:31;;;;;;;36.27;19.13;;;;;;;;;;5031599;28;20490;-49
2021/11/19 00:55:57;;;;;;;30.53;16.93;;;;;;;;;;5031148;28;20457;-48
2021/11/19 00:58:23;;;;;;;38.30;18.17;;;;;;;;;;5031375;28;20428;-48
2021/11/19 01:00:51;;;;;;;27.67;15.70;;;;;;;;;;5030942;28;20421;-50
2021/11/19 01:03:18;;;;;;;27.57;18.27;;;;;;;;;;5031192;28;20430;-48
2021/11/19 01:05:44;;;;;;;30.30;16.93;;;;;;;;;;5031603;28;20406;-48
2021/11/19 01:08:10;;;;;;;26.97;14.57;;;;;;;;;;5033850;28;20555;-49
2021/11/19 01:10:37;;;;;;;20.93;13.77;;;;;;;;;;5034602;28;20980;-48
2021/11/19 01:13:03;;;;;;;22.87;13.87;;;;;;;;;;5034789;28;20412;-50
2021/11/19 01:15:29;;;;;;;24.43;15.60;;;;;;;;;;5034660;28;20940;-49
2021/11/19 01:18:00;;;;;;;31.33;16.50;;;;;;;;;;5034686;28;20409;-48
2021/11/19 01:20:30;;;;;;;24.33;16.10;;;;;;;;;;5034378;28;20453;-49
2021/11/19 01:22:58;;;;;;;29.37;15.80;;;;;;;;;;5034649;28;20406;-48
2021/11/19 01:25:25;;;;;;;29.13;16.40;;;;;;;;;;5034631;28;20901;-51
2021/11/19 01:27:52;;;;;;;32.47;16.30;;;;;;;;;;5034429;28;20468;-48
2021/11/19 01:30:38;;;;;;;32.00;17.47;;;;;;;;;;5034245;28;20418;-52
2021/11/19 01:33:04;;;;;;;31.43;18.07;;;;;;;;;;5034365;28;20406;-48
2021/11/19 01:35:31;;;;;;;33.60;17.93;;;;;;;;;;5034308;28;20860;-49
2021/11/19 01:37:57;;;;;;;37.10;18.27;;;;;;;;;;5034329;28;20395;-49
2021/11/19 01:40:25;;;;;;;38.23;17.23;;;;;;;;;;5034131;28;20422;-49
2021/11/19 01:42:53;;;;;;;32.53;18.17;;;;;;;;;;5034191;28;20401;-50
2021/11/19 01:45:31;;;;;;;36.93;21.07;;;;;;;;;;5034167;28;20963;-49
2021/11/19 01:47:57;;;;;;;33.07;19.20;;;;;;;;;;5034322;28;20410;-48
2021/11/19 01:50:23;;;;;;;35.70;20.57;;;;;;;;;;5033855;28;20434;-48
2021/11/19 01:52:52;;;;;;;35.30;19.30;;;;;;;;;;5034056;28;20533;-48
2021/11/19 01:55:24;;;;;;;37.00;20.77;;;;;;;;;;5033983;28;20494;-52
2021/11/19 02:01:08;;;;;;;35.20;19.83;;;;;;;;;;5033170;28;20802;-49
2021/11/19 02:03:35;;;;;;;40.37;21.53;;;;;;;;;;5033294;28;20691;-48
2021/11/19 02:06:05;;;;;;;37.33;19.50;;;;;;;;;;5033261;28;20408;-48
2021/11/19 02:08:34;;;;;;;37.90;21.77;;;;;;;;;;5033766;28;20402;-49
2021/11/19 02:11:03;;;;;;;40.93;22.10;;;;;;;;;;5033397;28;20422;-48
2021/11/19 02:13:32;;;;;;;42.80;21.97;;;;;;;;;;5033568;28;20421;-50
2021/11/19 02:16:09;;;;;;;32.90;19.77;;;;;;;;;;5033559;28;20469;-49
2021/11/19 02:18:39;;;;;;;43.60;21.23;;;;;;;;;;5032488;28;20467;-51
2021/11/19 02:21:07;;;;;;;48.57;23.07;;;;;;;;;;5033337;28;20901;-51
2021/11/19 02:23:56;;;;;;;43.67;23.30;;;;;;;;;;5033884;28;20905;-51
2021/11/19 02:26:25;;;;;;;39.13;23.37;;;;;;;;;;5023406;28;20831;-49
2021/11/19 02:28:53;;;;;;;43.77;23.50;;;;;;;;;;5033386;28;20951;-49
2021/11/19 02:31:22;;;;;;;40.60;22.43;;;;;;;;;;5033051;28;20434;-48
2021/11/19 02:33:49;;;;;;;34.43;20.30;;;;;;;;;;5033245;28;20864;-50
2021/11/19 02:36:17;;;;;;;38.50;21.80;;;;;;;;;;5033116;28;20477;-48
2021/11/19 02:38:55;;;;;;;38.30;22.40;;;;;;;;;;5033165;28;20406;-48
2021/11/19 02:41:22;;;;;;;45.33;23.40;;;;;;;;;;5033218;28;20778;-49
2021/11/19 02:43:56;;;;;;;38.83;20.17;;;;;;;;;;5033087;28;20403;-48
2021/11/19 02:46:24;;;;;;;41.27;20.50;;;;;;;;;;5032942;28;20929;-48
2021/11/19 02:48:50;;;;;;;38.23;21.97;;;;;;;;;;5032967;28;20417;-48
2021/11/19 02:51:16;;;;;;;36.37;20.87;;;;;;;;;;5032744;28;20424;-49
2021/11/19 02:53:44;;;;;;;43.33;22.20;;;;;;;;;;5032899;28;20459;-49
2021/11/19 02:56:10;;;;;;;39.70;21.53;;;;;;;;;;5032790;28;20542;-49
2021/11/19 02:58:37;;;;;;;38.77;19.73;;;;;;;;;;5032762;28;20891;-48
2021/11/19 03:01:22;;;;;;;42.93;19.97;;;;;;;;;;5032412;28;20780;-49
2021/11/19 03:04:08;;;;;;;35.97;21.70;;;;;;;;;;5032588;28;20437;-49
2021/11/19 03:06:36;;;;;;;36.27;21.30;;;;;;;;;;5032494;28;20961;-48
2021/11/19 03:09:02;;;;;;;35.87;19.77;;;;;;;;;;5032572;28;20402;-48
2021/11/19 03:11:28;;;;;;;41.50;20.93;;;;;;;;;;5032280;28;20930;-48
2021/11/19 03:13:54;;;;;;;36.30;20.30;;;;;;;;;;5032474;28;20553;-49
2021/11/19 03:16:20;;;;;;;34.43;19.73;;;;;;;;;;5032438;28;20545;-48
2021/11/19 03:18:46;;;;;;;35.57;19.00;;;;;;;;;;5032400;28;20495;-48
2021/11/19 03:21:15;;;;;;;39.43;21.10;;;;;;;;;;5032175;28;20425;-48
2021/11/19 03:23:42;;;;;;;34.23;19.33;;;;;;;;;;5032359;28;20417;-50
2021/11/19 03:26:08;;;;;;;36.80;19.60;;;;;;;;;;5032283;28;20408;-48
2021/11/19 03:28:34;;;;;;;37.03;21.23;;;;;;;;;;5032336;28;20414;-48
2021/11/19 03:31:06;;;;;;;36.50;21.10;;;;;;;;;;5031740;28;20449;-49
2021/11/19 03:33:33;;;;;;;46.93;21.73;;;;;;;;;;5032166;28;20489;-50
2021/11/19 03:36:00;;;;;;;34.27;20.30;;;;;;;;;;5032079;28;20456;-49
2021/11/19 03:38:26;;;;;;;33.80;19.40;;;;;;;;;;5032065;28;20502;-49
2021/11/19 03:40:53;;;;;;;36.10;19.23;;;;;;;;;;5031786;28;20425;-49
2021/11/19 03:43:23;;;;;;;37.80;20.50;;;;;;;;;;5032328;28;20963;-48
2021/11/19 03:45:51;;;;;;;30.77;19.60;;;;;;;;;;5031940;28;20821;-51
2021/11/19 03:48:17;;;;;;;40.90;21.10;;;;;;;;;;5031959;28;20493;-50
2021/11/19 03:50:47;;;;;;;34.90;19.83;;;;;;;;;;5031712;28;20428;-50
2021/11/19 03:53:14;;;;;;;32.80;19.43;;;;;;;;;;5031821;28;20405;-49
2021/11/19 03:55:45;;;;;;;36.67;18.57;;;;;;;;;;5031800;28;20503;-49
2021/11/19 03:58:12;;;;;;;37.13;19.20;;;;;;;;;;5031996;28;20406;-49
2021/11/19 04:00:40;;;;;;;37.50;20.97;;;;;;;;;;5031534;28;20446;-49
2021/11/19 04:03:07;;;;;;;32.53;20.27;;;;;;;;;;5031648;28;20437;-49
2021/11/19 04:05:33;;;;;;;34.03;19.03;;;;;;;;;;5031739;28;20539;-49
2021/11/19 04:07:59;;;;;;;28.90;17.90;;;;;;;;;;5031756;28;20403;-49
2021/11/19 04:10:25;;;;;;;31.40;19.17;;;;;;;;;;5031621;28;20813;-48
2021/11/19 04:12:51;;;;;;;35.63;18.70;;;;;;;;;;5031836;28;20441;-48
2021/11/19 04:15:19;;;;;;;35.37;21.20;;;;;;;;;;5031723;28;20534;-48
2021/11/19 04:17:45;;;;;;;32.83;19.47;;;;;;;;;;5031660;28;20907;-49
2021/11/19 04:20:12;;;;;;;33.80;20.50;;;;;;;;;;5031241;28;20940;-48
2021/11/19 04:22:38;;;;;;;40.73;19.23;;;;;;;;;;5031688;28;20485;-49
2021/11/19 04:25:05;;;;;;;34.37;20.13;;;;;;;;;;5031568;28;20399;-49
2021/11/19 04:27:32;;;;;;;38.73;18.70;;;;;;;;;;5031566;28;20549;-48
2021/11/19 04:29:58;;;;;;;33.10;19.37;;;;;;;;;;5031288;28;20418;-49
2021/11/19 04:32:24;;;;;;;33.03;19.60;;;;;;;;;;5031610;28;20916;-48
2021/11/19 04:34:52;;;;;;;30.20;19.60;;;;;;;;;;5031406;28;20953;-48
2021/11/19 04:37:18;;;;;;;30.13;19.10;;;;;;;;;;5031499;28;20802;-49
2021/11/19 04:39:44;;;;;;;35.23;17.90;;;;;;;;;;5031127;28;20472;-49
2021/11/19 04:42:10;;;;;;;33.60;19.43;;;;;;;;;;5032705;28;20842;-50
2021/11/19 04:44:36;;;;;;;35.17;19.67;;;;;;;;;;5035367;28;20413;-49
2021/11/19 04:47:03;;;;;;;40.83;20.90;;;;;;;;;;5035310;28;20459;-48
2021/11/19 04:49:30;;;;;;;32.73;18.13;;;;;;;;;;5034798;28;20882;-49
2021/11/19 04:51:56;;;;;;;37.97;21.50;;;;;;;;;;5035271;28;20395;-49
2021/11/19 04:54:23;;;;;;;37.17;19.57;;;;;;;;;;5035154;28;20424;-49
2021/11/19 04:56:50;;;;;;;34.80;18.90;;;;;;;;;;5035151;28;20492;-48
2021/11/19 04:59:16;;;;;;;31.30;18.77;;;;;;;;;;5034985;28;20406;-49
2021/11/19 05:01:44;;;;;;;35.93;18.63;;;;;;;;;;5034959;28;20467;-49
2021/11/19 05:04:10;;;;;;;34.80;18.67;;;;;;;;;;5034886;28;20423;-49
2021/11/19 05:06:36;;;;;;;31.53;18.87;;;;;;;;;;5034946;28;20406;-48
2021/11/19 05:09:04;;;;;;;31.57;18.47;;;;;;;;;;5034833;28;20420;-48
2021/11/19 05:11:49;;;;;;;33.53;18.07;;;;;;;;;;5034693;28;20431;-51
2021/11/19 05:14:16;;;;;;;30.10;17.73;;;;;;;;;;5034720;28;20410;-49
2021/11/19 05:16:42;;;;;;;29.53;17.70;;;;;;;;;;5055276;22;20504;-52
2021/11/19 05:19:08;;;;;;;32.53;19.23;;;;;;;;;;5024962;28;20407;-53
2021/11/19 05:21:34;;;;;;;32.83;17.20;;;;;;;;;;5026472;28;20407;-53
2021/11/19 05:24:00;;;;;;;29.30;18.40;;;;;;;;;;5025396;28;20449;-53
2021/11/19 05:26:30;;;;;;;32.50;18.17;;;;;;;;;;5024512;28;20472;-53
2021/11/19 05:28:56;;;;;;;38.37;19.93;;;;;;;;;;5025406;28;20467;-53
2021/11/19 05:31:22;;;;;;;29.77;17.70;;;;;;;;;;5026094;28;20399;-53
2021/11/19 05:33:49;;;;;;;31.73;19.40;;;;;;;;;;5025935;28;20429;-52
2021/11/19 05:36:15;;;;;;;31.80;17.40;;;;;;;;;;5025165;28;20529;-52
2021/11/19 05:38:41;;;;;;;29.57;17.17;;;;;;;;;;5024971;28;20400;-54
2021/11/19 05:41:08;;;;;;;34.83;17.10;;;;;;;;;;5025638;28;20407;-53
2021/11/19 05:43:36;;;;;;;31.10;18.80;;;;;;;;;;5007935;28;20921;-52
2021/11/19 05:46:02;;;;;;;31.60;16.47;;;;;;;;;;5024847;28;20914;-53
2021/11/19 05:48:28;;;;;;;28.67;16.40;;;;;;;;;;5006179;28;20411;-53
2021/11/19 05:50:54;;;;;;;33.10;17.77;;;;;;;;;;5024240;28;20407;-53
2021/11/19 05:53:20;;;;;;;25.10;16.73;;;;;;;;;;5025069;28;20415;-53
2021/11/19 05:55:47;;;;;;;27.97;17.20;;;;;;;;;;5023811;28;20509;-53
2021/11/19 05:58:14;;;;;;;25.57;17.83;;;;;;;;;;5024133;28;20478;-53
2021/11/19 06:00:46;;;;;;;31.50;17.27;;;;;;;;;;5023622;28;20435;-52
2021/11/19 06:03:11;;;;;;;24.83;15.70;;;;;;;;;;5023617;28;20399;-53
2021/11/19 06:05:38;;;;;;;28.43;17.47;;;;;;;;;;5006233;28;20471;-53
2021/11/19 06:08:05;;;;;;;25.90;16.60;;;;;;;;;;5024347;28;20438;-52
2021/11/19 06:10:31;;;;;;;25.47;16.57;;;;;;;;;;5024316;28;20411;-53
2021/11/19 06:13:00;;;;;;;30.13;16.60;;;;;;;;;;5023916;28;20472;-53
2021/11/19 06:15:29;;;;;;;28.40;17.03;;;;;;;;;;5005853;28;20823;-53
2021/11/19 06:17:57;;;;;;;28.20;16.70;;;;;;;;;;5023658;28;20468;-53
2021/11/19 06:20:32;;;;;;;30.97;17.57;;;;;;;;;;5022592;28;20405;-53
2021/11/19 06:23:03;;;;;;;31.33;17.77;;;;;;;;;;5023052;28;20403;-53
2021/11/19 06:25:30;;;;;;;28.60;16.43;;;;;;;;;;5022393;28;20427;-52
2021/11/19 06:27:59;;;;;;;30.20;17.57;;;;;;;;;;5022166;28;21033;-53
2021/11/19 06:30:25;;;;;;;31.40;16.37;;;;;;;;;;5023028;28;20407;-52
2021/11/19 06:32:51;;;;;;;32.23;17.23;;;;;;;;;;5023898;28;20407;-53
2021/11/19 06:35:17;;;;;;;34.17;17.50;;;;;;;;;;5023667;28;20970;-53
2021/11/19 06:37:43;;;;;;;33.07;18.57;;;;;;;;;;5023902;28;20399;-52
2021/11/19 06:40:12;;;;;;;31.07;19.37;;;;;;;;;;5023012;28;20444;-54
2021/11/19 06:42:38;;;;;;;30.60;17.90;;;;;;;;;;5022176;28;20441;-53
2021/11/19 06:45:05;;;;;;;31.00;17.83;;;;;;;;;;5021523;28;20408;-53
2021/11/19 06:47:31;;;;;;;35.60;19.60;;;;;;;;;;5021331;28;20487;-52
2021/11/19 06:49:57;;;;;;;31.20;17.80;;;;;;;;;;5021248;28;20437;-52
2021/11/19 06:52:23;;;;;;;38.30;20.03;;;;;;;;;;5021334;28;21017;-52
2021/11/19 06:54:49;;;;;;;31.63;18.63;;;;;;;;;;5004564;28;20411;-52
2021/11/19 06:57:15;;;;;;;31.50;17.37;;;;;;;;;;5021796;28;20469;-53
2021/11/19 06:59:42;;;;;;;36.00;18.57;;;;;;;;;;5021175;28;20406;-53
2021/11/19 07:02:09;;;;;;;30.57;17.80;;;;;;;;;;5021923;28;20414;-53
2021/11/19 07:04:35;;;;;;;31.70;17.50;;;;;;;;;;5021699;28;20403;-52
2021/11/19 07:07:02;;;;;;;37.07;19.77;;;;;;;;;;5002497;28;20927;-52
2021/11/19 07:09:28;;;;;;;28.63;16.83;;;;;;;;;;5002441;28;21052;-53
2021/11/19 07:11:55;;;;;;;29.07;17.00;;;;;;;;;;5020014;28;20407;-53
2021/11/19 07:14:21;;;;;;;37.80;18.73;;;;;;;;;;5004008;28;20415;-52
2021/11/19 07:16:47;;;;;;;34.57;17.77;;;;;;;;;;5022398;28;20918;-52
2021/11/19 07:19:13;;;;;;;33.63;18.13;;;;;;;;;;5022238;28;20490;-52
2021/11/19 07:21:40;;;;;;;36.13;18.23;;;;;;;;;;5022182;28;20404;-53
2021/11/19 07:24:06;;;;;;;26.80;16.50;;;;;;;;;;5004483;28;20480;-53
2021/11/19 07:26:34;;;;;;;32.27;18.23;;;;;;;;;;5006203;28;20435;-53
2021/11/19 07:29:00;;;;;;;36.53;18.20;;;;;;;;;;5005389;28;20910;-53
2021/11/19 07:31:26;;;;;;;29.10;17.17;;;;;;;;;;5023130;28;20439;-53
2021/11/19 07:33:52;;;;;;;32.33;17.20;;;;;;;;;;5023163;28;20403;-52
2021/11/19 07:36:19;;;;;;;36.20;17.17;;;;;;;;;;5022870;28;20458;-53
2021/11/19 07:38:46;;;;;;;33.83;17.33;;;;;;;;;;5023545;28;20407;-52
2021/11/19 07:41:13;;;;;;;31.23;17.80;;;;;;;;;;5024430;28;20403;-53
2021/11/19 07:43:42;;;;;;;28.30;16.40;;;;;;;;;;5004871;28;20407;-53
2021/11/19 07:46:09;;;;;;;34.33;18.27;;;;;;;;;;5021728;28;20427;-53
2021/11/19 07:48:37;;;;;;;30.40;15.70;;;;;;;;;;5021188;28;20399;-53
2021/11/19 07:51:05;;;;;;;29.87;16.37;;;;;;;;;;5021976;28;20407;-52
2021/11/19 07:53:31;;;;;;;29.47;17.03;;;;;;;;;;5021690;28;20413;-52
2021/11/19 07:55:57;;;;;;;35.77;18.40;;;;;;;;;;5022185;28;20502;-53
2021/11/19 07:58:24;;;;;;;28.67;16.83;;;;;;;;;;5005066;28;20407;-53
2021/11/19 08:00:51;;;;;;;28.77;16.50;;;;;;;;;;5022374;28;20894;-53
2021/11/19 08:03:17;;;;;;;36.13;17.57;;;;;;;;;;5003186;28;20443;-53
2021/11/19 08:05:45;;;;;;;30.07;17.80;;;;;;;;;;5019752;28;20431;-52
2021/11/19 08:08:11;;;;;;;26.80;15.83;;;;;;;;;;5003343;28;20768;-53
2021/11/19 08:10:37;;;;;;;31.47;17.53;;;;;;;;;;5020365;28;20411;-53
2021/11/19 08:13:03;;;;;;;32.20;17.37;;;;;;;;;;5020724;28;20410;-53
2021/11/19 08:15:30;;;;;;;25.20;15.50;;;;;;;;;;5020026;28;20463;-52
2021/11/19 08:17:56;;;;;;;24.30;14.50;;;;;;;;;;5005706;28;20412;-53
2021/11/19 08:20:24;;;;;;;24.13;15.20;;;;;;;;;;5024262;28;20406;-52
2021/11/19 08:22:50;;;;;;;24.37;14.80;;;;;;;;;;5025627;28;20531;-52
2021/11/19 08:25:17;;;;;;;27.77;14.87;;;;;;;;;;5026288;28;20470;-52
2021/11/19 08:27:45;;;;;;;27.57;15.97;;;;;;;;;;5026844;28;20493;-52
2021/11/19 08:30:17;;;;;;;29.87;15.60;;;;;;;;;;5025812;28;20406;-53
2021/11/19 08:32:43;;;;;;;21.80;13.80;;;;;;;;;;5025069;28;20403;-52
2021/11/19 08:35:09;;;;;;;24.20;14.40;;;;;;;;;;5007514;28;20414;-53
2021/11/19 08:37:35;;;;;;;28.47;14.10;;;;;;;;;;5024720;28;20411;-53
2021/11/19 08:40:02;;;;;;;21.60;12.33;;;;;;;;;;5024745;28;20406;-52
2021/11/19 08:42:28;;;;;;;22.60;13.40;;;;;;;;;;5025026;28;20408;-53
2021/11/19 08:44:54;;;;;;;19.90;13.73;;;;;;;;;;5024547;28;20486;-53
2021/11/19 08:47:21;;;;;;;24.90;13.83;;;;;;;;;;5023677;28;20933;-53
2021/11/19 08:49:47;;;;;;;29.73;13.27;;;;;;;;;;5023031;28;20475;-53
2021/11/19 08:52:15;;;;;;;23.90;14.17;;;;;;;;;;5023005;28;20417;-53
2021/11/19 08:54:41;;;;;;;23.23;13.73;;;;;;;;;;5022557;28;20408;-53
2021/11/19 08:57:10;;;;;;;20.83;13.23;;;;;;;;;;5021870;28;21028;-52
2021/11/19 08:59:38;;;;;;;32.83;16.00;;;;;;;;;;5022887;28;20407;-52
2021/11/19 09:02:05;;;;;;;26.43;13.20;;;;;;;;;;5022301;28;20395;-53
2021/11/19 09:04:32;;;;;;;26.37;14.57;;;;;;;;;;5022699;28;20459;-52
2021/11/19 09:06:58;;;;;;;24.30;13.63;;;;;;;;;;5023109;28;20427;-53
2021/11/19 09:09:25;;;;;;;26.90;13.60;;;;;;;;;;5023912;28;20403;-52
2021/11/19 09:11:51;;;;;;;24.70;14.70;;;;;;;;;;5023174;28;20415;-52
2021/11/19 09:14:17;;;;;;;23.73;13.40;;;;;;;;;;5022910;28;20468;-54
2021/11/19 09:16:48;;;;;;;24.50;14.00;;;;;;;;;;5023177;28;20462;-53
2021/11/19 09:19:19;;;;;;;31.30;15.60;;;;;;;;;;5023636;28;20407;-52
2021/11/19 09:22:14;;;;;;;23.13;12.87;;;;;;;;;;5022078;28;20537;-53
2021/11/19 09:24:41;;;;;;;23.10;14.13;;;;;;;;;;4970129;28;20940;-53
2021/11/19 09:27:10;;;;;;;21.30;13.83;;;;;;;;;;5005472;28;20503;-52
2021/11/19 09:29:39;;;;;;;22.37;14.27;;;;;;;;;;5023291;28;20438;-52
2021/11/19 09:32:06;;;;;;;23.90;14.37;;;;;;;;;;5024614;28;20407;-52
2021/11/19 09:34:36;;;;;;;25.43;15.40;;;;;;;;;;5025315;28;20414;-53
2021/11/19 09:37:04;;;;;;;25.50;16.33;;;;;;;;;;5006555;28;20478;-53
2021/11/19 09:39:30;;;;;;;25.80;15.43;;;;;;;;;;5025479;28;20475;-53
2021/11/19 09:42:02;;;;;;;25.57;15.83;;;;;;;;;;5026435;28;20418;-53
2021/11/19 09:44:33;;;;;;;27.77;16.17;;;;;;;;;;5007971;28;20416;-53
2021/11/19 09:47:18;;;;;;;26.37;16.17;;;;;;;;;;5025443;28;20502;-53
2021/11/19 09:49:56;;;;;;;25.67;14.97;;;;;;;;;;5026324;28;20415;-53
2021/11/19 09:52:49;;;;;;;26.60;15.40;;;;;;;;;;5009197;28;20420;-52
2021/11/19 09:55:30;;;;;;;29.77;15.90;;;;;;;;;;5022652;28;20439;-53
2021/11/19 09:58:09;;;;;;;27.43;14.90;;;;;;;;;;5025685;28;20407;-53
2021/11/19 10:00:47;;;;;;;31.33;17.67;;;;;;;;;;5026249;28;20441;-53
2021/11/19 10:03:42;;;;;;;29.93;18.47;;;;;;;;;;5026899;28;20415;-53
2021/11/19 10:06:14;;;;;;;25.40;16.30;;;;;;;;;;4939957;28;20856;-52
2021/11/19 10:08:50;;;;;;;28.43;16.50;;;;;;;;;;5006827;28;20507;-53
2021/11/19 10:11:21;;;;;;;28.27;17.97;;;;;;;;;;5026092;28;20429;-52
2021/11/19 10:13:56;;;;;;;32.57;18.37;;;;;;;;;;5026117;28;20446;-53
2021/11/19 10:16:23;;;;;;;32.53;18.97;;;;;;;;;;5026409;28;20472;-52
2021/11/19 10:19:09;;;;;;;30.50;17.80;;;;;;;;;;5026587;28;20452;-53
2021/11/19 10:21:37;;;;;;;33.90;18.43;;;;;;;;;;5008486;28;20412;-53
2021/11/19 10:24:15;;;;;;;33.73;19.70;;;;;;;;;;5026129;28;20403;-53
2021/11/19 10:26:42;;;;;;;36.40;19.90;;;;;;;;;;5008724;28;20515;-53
2021/11/19 10:29:22;;;;;;;36.90;21.53;;;;;;;;;;5026609;28;20403;-53
2021/11/19 10:31:49;;;;;;;41.20;22.90;;;;;;;;;;5027133;28;20442;-53
2021/11/19 10:34:28;;;;;;;38.20;22.33;;;;;;;;;;5027311;28;20441;-53
2021/11/19 10:37:14;;;;;;;41.40;21.53;;;;;;;;;;5025559;28;20465;-54
2021/11/19 10:39:43;;;;;;;37.90;22.27;;;;;;;;;;4994091;28;20413;-53
2021/11/19 10:42:21;;;;;;;41.53;24.23;;;;;;;;;;5025872;28;20407;-54
2021/11/19 10:45:04;;;;;;;44.60;24.13;;;;;;;;;;5007777;28;20415;-53
2021/11/19 10:47:49;;;;;;;43.13;24.27;;;;;;;;;;5025578;28;20409;-53
2021/11/19 10:50:15;;;;;;;43.03;23.73;;;;;;;;;;5025456;28;20400;-53
2021/11/19 10:52:53;;;;;;;56.53;26.07;;;;;;;;;;5025925;28;20405;-53
2021/11/19 10:55:31;;;;;;;42.67;24.00;;;;;;;;;;5025406;28;20458;-53
2021/11/19 10:58:22;;;;;;;46.40;23.40;;;;;;;;;;5024904;28;20404;-53
2021/11/19 11:00:53;;;;;;;52.30;25.83;;;;;;;;;;5024157;28;20400;-54
2021/11/19 11:03:22;;;;;;;49.17;25.33;;;;;;;;;;5024276;28;20410;-54
2021/11/19 11:05:56;;;;;;;51.07;25.80;;;;;;;;;;5024087;28;20487;-54
2021/11/19 11:08:22;;;;;;;48.33;26.00;;;;;;;;;;5023972;28;20458;-53
2021/11/19 11:10:54;;;;;;;39.10;22.70;;;;;;;;;;5024569;28;20543;-54
2021/11/19 11:13:21;;;;;;;49.63;25.57;;;;;;;;;;5024500;28;20427;-53
2021/11/19 11:15:50;;;;;;;46.70;24.83;;;;;;;;;;5013463;23;20536;-52
2021/11/19 11:18:22;;;;;;;50.03;26.63;;;;;;;;;;5032642;28;20841;-52
2021/11/19 11:20:57;;;;;;;43.90;25.23;;;;;;;;;;5031761;28;20391;-52
2021/11/19 11:23:26;;;;;;;51.37;25.50;;;;;;;;;;5032531;28;20772;-53
2021/11/19 11:26:04;;;;;;;45.57;25.57;;;;;;;;;;5032134;28;20418;-52
2021/11/19 11:28:44;;;;;;;48.73;25.90;;;;;;;;;;5032543;28;20529;-53
2021/11/19 11:31:22;;;;;;;50.33;27.10;;;;;;;;;;5032053;28;20406;-53
2021/11/19 11:33:51;;;;;;;46.93;26.53;;;;;;;;;;5032575;28;20478;-53
2021/11/19 11:36:23;;;;;;;43.93;24.00;;;;;;;;;;5031857;28;20462;-52
2021/11/19 11:39:01;;;;;;;49.33;25.87;;;;;;;;;;5032307;28;20408;-52
2021/11/19 11:41:53;;;;;;;47.57;25.87;;;;;;;;;;5031949;28;20403;-52
2021/11/19 11:44:23;;;;;;;43.80;25.20;;;;;;;;;;5028599;28;20934;-52
2021/11/19 11:46:50;;;;;;;43.90;24.40;;;;;;;;;;5031705;28;20511;-52
2021/11/19 11:49:21;;;;;;;43.43;23.20;;;;;;;;;;5031922;28;20409;-53
2021/11/19 11:51:56;;;;;;;43.37;25.23;;;;;;;;;;5031841;28;20438;-52
2021/11/19 11:54:35;;;;;;;43.47;25.33;;;;;;;;;;5032014;28;20776;-52
2021/11/19 11:57:20;;;;;;;37.87;24.80;;;;;;;;;;5013929;28;20475;-53
2021/11/19 11:59:52;;;;;;;39.77;24.63;;;;;;;;;;5031721;28;20448;-52
2021/11/19 12:02:27;;;;;;;44.83;24.57;;;;;;;;;;5031791;28;20752;-53
2021/11/19 12:04:54;;;;;;;42.67;24.07;;;;;;;;;;5031846;28;20424;-53
2021/11/19 12:07:26;;;;;;;53.03;27.00;;;;;;;;;;5031661;28;20797;-53
2021/11/19 12:10:12;;;;;;;49.97;27.77;;;;;;;;;;5031786;28;20409;-53
2021/11/19 12:12:47;;;;;;;42.97;26.43;;;;;;;;;;5031574;28;20411;-53
2021/11/19 12:15:18;;;;;;;40.70;24.03;;;;;;;;;;5031639;28;20404;-52
2021/11/19 12:18:07;;;;;;;40.07;24.47;;;;;;;;;;5031492;28;20426;-53
2021/11/19 12:20:45;;;;;;;41.80;25.73;;;;;;;;;;5031467;28;20407;-53
2021/11/19 12:23:11;;;;;;;42.70;23.47;;;;;;;;;;5031574;28;20476;-53
2021/11/19 12:25:56;;;;;;;47.00;24.23;;;;;;;;;;5031504;28;20789;-53
2021/11/19 12:28:24;;;;;;;43.77;25.00;;;;;;;;;;5031378;28;20426;-53
2021/11/19 12:31:10;;;;;;;43.20;24.00;;;;;;;;;;5031412;28;20414;-53
2021/11/19 12:33:39;;;;;;;43.80;24.80;;;;;;;;;;5031455;28;20402;-53
2021/11/19 12:36:07;;;;;;;43.77;25.73;;;;;;;;;;5031284;28;20953;-53
2021/11/19 12:38:36;;;;;;;43.90;24.60;;;;;;;;;;5031360;28;20404;-53
2021/11/19 12:41:10;;;;;;;43.67;23.17;;;;;;;;;;5031095;28;20488;-53
2021/11/19 12:43:36;;;;;;;39.40;24.30;;;;;;;;;;5031528;28;20469;-53
2021/11/19 12:46:05;;;;;;;40.07;24.53;;;;;;;;;;5031331;28;20426;-53
2021/11/19 12:48:34;;;;;;;42.60;24.53;;;;;;;;;;5031368;28;20409;-53
2021/11/19 12:51:16;;;;;;;41.37;24.23;;;;;;;;;;5031097;28;20502;-53
2021/11/19 12:53:48;;;;;;;38.77;24.47;;;;;;;;;;5031402;28;20825;-52
2021/11/19 12:56:17;;;;;;;44.67;26.90;;;;;;;;;;5031365;28;20469;-52
2021/11/19 12:58:49;;;;;;;42.07;25.00;;;;;;;;;;5031451;28;20398;-53
2021/11/19 13:01:22;;;;;;;51.30;25.90;;;;;;;;;;5031034;28;20887;-53
2021/11/19 13:04:03;;;;;;;44.53;23.83;;;;;;;;;;5033193;28;20395;-53
2021/11/19 13:06:51;;;;;;;44.77;24.40;;;;;;;;;;5034893;28;20525;-53
2021/11/19 13:09:17;;;;;;;40.07;24.70;;;;;;;;;;5034882;28;20457;-53
2021/11/19 13:11:58;;;;;;;47.70;24.33;;;;;;;;;;5034734;28;20909;-53
2021/11/19 13:14:30;;;;;;;37.47;23.93;;;;;;;;;;5034763;28;20983;-52
2021/11/19 13:17:02;;;;;;;42.20;25.17;;;;;;;;;;5034428;28;20498;-53
2021/11/19 13:19:37;;;;;;;44.43;24.63;;;;;;;;;;5034448;28;20492;-53
2021/11/19 13:22:06;;;;;;;42.10;24.17;;;;;;;;;;5034738;28;20403;-53
2021/11/19 13:24:36;;;;;;;41.73;23.27;;;;;;;;;;5035155;28;20795;-53
2021/11/19 13:27:24;;;;;;;39.60;23.40;;;;;;;;;;5034962;28;20426;-53
2021/11/19 13:29:53;;;;;;;44.10;24.00;;;;;;;;;;5034528;28;20412;-53
2021/11/19 13:32:20;;;;;;;42.70;23.30;;;;;;;;;;5033113;28;20414;-53
2021/11/19 13:34:50;;;;;;;51.27;23.17;;;;;;;;;;5034615;28;20826;-53
2021/11/19 13:37:35;;;;;;;42.50;25.00;;;;;;;;;;5033980;28;20557;-53
2021/11/19 13:40:19;;;;;;;44.97;27.07;;;;;;;;;;5034204;28;20391;-53
2021/11/19 13:42:48;;;;;;;46.17;25.13;;;;;;;;;;5034226;28;20409;-53
2021/11/19 13:45:26;;;;;;;46.60;26.53;;;;;;;;;;5034259;28;20405;-52
2021/11/19 13:48:12;;;;;;;43.37;25.03;;;;;;;;;;5033972;28;20411;-52
2021/11/19 13:50:41;;;;;;;42.67;25.37;;;;;;;;;;4983965;28;20889;-53
2021/11/19 13:53:19;;;;;;;46.70;24.70;;;;;;;;;;5034081;28;20552;-53
2021/11/19 13:56:07;;;;;;;40.53;23.80;;;;;;;;;;5034037;28;20500;-53
2021/11/19 13:58:43;;;;;;;38.97;24.40;;;;;;;;;;5034313;28;20817;-53
2021/11/19 14:01:26;;;;;;;41.30;24.03;;;;;;;;;;5033988;28;20438;-53
2021/11/19 14:03:53;;;;;;;39.00;23.13;;;;;;;;;;5034058;28;20427;-53
2021/11/19 14:06:27;;;;;;;34.47;21.80;;;;;;;;;;5032513;28;20430;-53
2021/11/19 14:08:56;;;;;;;32.03;20.63;;;;;;;;;;5033865;28;20461;-53
2021/11/19 14:11:23;;;;;;;40.40;22.43;;;;;;;;;;5033550;28;20403;-53
2021/11/19 14:13:50;;;;;;;39.00;23.93;;;;;;;;;;5033432;28;20414;-53
2021/11/19 14:16:21;;;;;;;40.50;21.93;;;;;;;;;;5032741;28;20469;-53
2021/11/19 14:19:07;;;;;;;33.40;19.93;;;;;;;;;;5033439;28;20472;-53
2021/11/19 14:22:00;;;;;;;34.00;20.30;;;;;;;;;;5033459;28;20411;-53
2021/11/19 14:24:49;;;;;;;39.33;22.10;;;;;;;;;;5033620;28;20390;-53
2021/11/19 14:27:20;;;;;;;36.27;21.63;;;;;;;;;;5020438;28;20440;-53
2021/11/19 14:29:48;;;;;;;34.87;21.40;;;;;;;;;;5033328;28;20402;-52
2021/11/19 14:32:24;;;;;;;38.37;22.50;;;;;;;;;;5033378;28;20795;-52
2021/11/19 14:34:53;;;;;;;34.77;22.33;;;;;;;;;;5033414;28;20403;-53
2021/11/19 14:37:21;;;;;;;39.43;24.53;;;;;;;;;;5033187;28;20600;-53